sensor_id;sensor_type;location;lat;lon;timestamp;pressure;altitude;pressure_sealevel;temperature;humidity
48652;BME280;34442;52.362;-1.302;2022-10-24T00:00:48;98077.50;;;13.67;100.00
48652;BME280;34442;52.362;-1.302;2022-10-24T00:03:15;98081.06;;;13.62;100.00
48652;BME280;34442;52.362;-1.302;2022-10-24T00:05:42;98076.72;;;13.61;100.00
48652;BME280;34442;52.362;-1.302;2022-10-24T00:08:09;98080.47;;;13.65;100.00
48652;BME280;34442;52.362;-1.302;2022-10-24T00:10:35;98076.16;;;13.64;100.00
48652;BME280;34442;52.362;-1.302;2022-10-24T00:13:02;98076.22;;;13.59;100.00
48652;BME280;34442;52.362;-1.302;2022-10-24T00:15:29;98078.06;;;13.64;100.00
48652;BME280;34442;52.362;-1.302;2022-10-24T00:17:55;98069.97;;;13.64;100.00
48652;BME280;34442;52.362;-1.302;2022-10-24T00:20:21;98073.16;;;13.71;100.00
48652;BME280;34442;52.362;-1.302;2022-10-24T00:22:47;98069.91;;;13.69;100.00
48652;BME280;34442;52.362;-1.302;2022-10-24T00:25:13;98076.94;;;13.70;100.00
48652;BME280;34442;52.362;-1.302;2022-10-24T00:27:39;98076.94;;;13.70;100.00
48652;BME280;34442;52.362;-1.302;2022-10-24T00:30:05;98077.63;;;13.52;100.00
48652;BME280;34442;52.362;-1.302;2022-10-24T00:32:31;98082.75;;;13.53;100.00
48652;BME280;34442;52.362;-1.302;2022-10-24T00:34:58;98083.78;;;13.57;100.00
48652;BME280;34442;52.362;-1.302;2022-10-24T00:37:24;98089.97;;;13.63;100.00
48652;BME280;34442;52.362;-1.302;2022-10-24T00:39:50;98087.03;;;13.59;100.00
48652;BME280;34442;52.362;-1.302;2022-10-24T00:42:16;98084.63;;;13.58;100.00
48652;BME280;34442;52.362;-1.302;2022-10-24T00:44:42;98091.06;;;13.62;100.00
48652;BME280;34442;52.362;-1.302;2022-10-24T00:47:22;98084.69;;;13.48;100.00
48652;BME280;34442;52.362;-1.302;2022-10-24T00:49:52;98090.81;;;13.58;100.00
48652;BME280;34442;52.362;-1.302;2022-10-24T00:52:25;98091.38;;;13.55;100.00
48652;BME280;34442;52.362;-1.302;2022-10-24T00:54:53;98085.88;;;13.65;100.00
48652;BME280;34442;52.362;-1.302;2022-10-24T00:57:24;98093.38;;;13.74;100.00
48652;BME280;34442;52.362;-1.302;2022-10-24T00:59:58;98087.66;;;13.80;100.00
48652;BME280;34442;52.362;-1.302;2022-10-24T01:02:25;98086.78;;;13.85;100.00
48652;BME280;34442;52.362;-1.302;2022-10-24T01:04:51;98091.44;;;13.79;100.00
48652;BME280;34442;52.362;-1.302;2022-10-24T01:12:45;98097.84;;;13.88;100.00
48652;BME280;34442;52.362;-1.302;2022-10-24T01:31:53;98098.06;;;13.92;100.00
48652;BME280;34442;52.362;-1.302;2022-10-24T01:34:27;98108.03;;;13.97;100.00
48652;BME280;34442;52.362;-1.302;2022-10-24T01:37:08;98101.81;;;13.96;100.00
48652;BME280;34442;52.362;-1.302;2022-10-24T01:39:41;98109.94;;;13.96;100.00
48652;BME280;34442;52.362;-1.302;2022-10-24T01:42:09;98114.28;;;13.92;100.00
48652;BME280;34442;52.362;-1.302;2022-10-24T01:44:42;98121.00;;;13.95;100.00
48652;BME280;34442;52.362;-1.302;2022-10-24T01:47:13;98124.78;;;13.94;100.00
48652;BME280;34442;52.362;-1.302;2022-10-24T01:49:47;98131.84;;;13.89;100.00
48652;BME280;34442;52.362;-1.302;2022-10-24T01:52:15;98130.53;;;13.87;100.00
48652;BME280;34442;52.362;-1.302;2022-10-24T01:54:42;98135.16;;;13.81;100.00
48652;BME280;34442;52.362;-1.302;2022-10-24T01:57:09;98126.31;;;13.76;100.00
48652;BME280;34442;52.362;-1.302;2022-10-24T02:02:07;98131.38;;;13.82;100.00
48652;BME280;34442;52.362;-1.302;2022-10-24T02:04:38;98143.81;;;13.78;100.00
48652;BME280;34442;52.362;-1.302;2022-10-24T02:07:09;98145.72;;;13.78;100.00
48652;BME280;34442;52.362;-1.302;2022-10-24T02:09:38;98147.63;;;13.77;100.00
48652;BME280;34442;52.362;-1.302;2022-10-24T02:12:06;98151.41;;;13.76;100.00
48652;BME280;34442;52.362;-1.302;2022-10-24T02:14:42;98160.56;;;13.80;100.00
48652;BME280;34442;52.362;-1.302;2022-10-24T02:17:10;98160.03;;;13.78;100.00
48652;BME280;34442;52.362;-1.302;2022-10-24T02:19:36;98156.28;;;13.74;100.00
48652;BME280;34442;52.362;-1.302;2022-10-24T02:24:58;98178.72;;;13.75;100.00
48652;BME280;34442;52.362;-1.302;2022-10-24T02:27:33;98170.31;;;13.76;100.00
48652;BME280;34442;52.362;-1.302;2022-10-24T02:30:13;98167.31;;;13.78;100.00
48652;BME280;34442;52.362;-1.302;2022-10-24T02:32:42;98169.22;;;13.77;100.00
48652;BME280;34442;52.362;-1.302;2022-10-24T02:35:12;98167.38;;;13.73;100.00
48652;BME280;34442;52.362;-1.302;2022-10-24T02:37:43;98172.78;;;13.73;100.00
48652;BME280;34442;52.362;-1.302;2022-10-24T02:40:13;98183.31;;;13.69;100.00
48652;BME280;34442;52.362;-1.302;2022-10-24T02:42:41;98188.78;;;13.64;100.00
48652;BME280;34442;52.362;-1.302;2022-10-24T02:45:11;98188.47;;;13.65;100.00
48652;BME280;34442;52.362;-1.302;2022-10-24T02:47:39;98198.22;;;13.67;100.00
48652;BME280;34442;52.362;-1.302;2022-10-24T02:50:06;98194.47;;;13.57;100.00
48652;BME280;34442;52.362;-1.302;2022-10-24T02:52:33;98206.06;;;13.63;100.00
48652;BME280;34442;52.362;-1.302;2022-10-24T02:55:01;98204.97;;;13.64;100.00
48652;BME280;34442;52.362;-1.302;2022-10-24T02:57:27;98208.81;;;13.58;100.00
48652;BME280;34442;52.362;-1.302;2022-10-24T02:59:53;98214.47;;;13.56;100.00
48652;BME280;34442;52.362;-1.302;2022-10-24T03:02:19;98219.09;;;13.51;100.00
48652;BME280;34442;52.362;-1.302;2022-10-24T03:04:45;98216.91;;;13.53;100.00
48652;BME280;34442;52.362;-1.302;2022-10-24T03:07:11;98216.41;;;13.51;100.00
48652;BME280;34442;52.362;-1.302;2022-10-24T03:09:40;98224.75;;;13.54;100.00
48652;BME280;34442;52.362;-1.302;2022-10-24T03:12:06;98216.91;;;13.58;100.00
48652;BME280;34442;52.362;-1.302;2022-10-24T03:14:32;98216.06;;;13.57;100.00
48652;BME280;34442;52.362;-1.302;2022-10-24T03:16:58;98223.38;;;13.57;100.00
48652;BME280;34442;52.362;-1.302;2022-10-24T03:19:24;98225.00;;;13.58;100.00
48652;BME280;34442;52.362;-1.302;2022-10-24T03:21:50;98235.22;;;13.61;100.00
48652;BME280;34442;52.362;-1.302;2022-10-24T03:24:16;98233.66;;;13.55;100.00
48652;BME280;34442;52.362;-1.302;2022-10-24T03:26:42;98246.59;;;13.53;100.00
48652;BME280;34442;52.362;-1.302;2022-10-24T03:29:09;98250.66;;;13.55;100.00
48652;BME280;34442;52.362;-1.302;2022-10-24T03:31:39;98257.69;;;13.51;100.00
48652;BME280;34442;52.362;-1.302;2022-10-24T03:34:05;98261.16;;;13.57;100.00
48652;BME280;34442;52.362;-1.302;2022-10-24T03:36:32;98263.84;;;13.62;100.00
48652;BME280;34442;52.362;-1.302;2022-10-24T03:38:58;98262.75;;;13.63;100.00
48652;BME280;34442;52.362;-1.302;2022-10-24T03:41:24;98262.78;;;13.58;100.00
48652;BME280;34442;52.362;-1.302;2022-10-24T03:43:50;98277.63;;;13.60;100.00
48652;BME280;34442;52.362;-1.302;2022-10-24T03:46:16;98276.25;;;13.63;100.00
48652;BME280;34442;52.362;-1.302;2022-10-24T03:48:42;98272.50;;;13.59;100.00
48652;BME280;34442;52.362;-1.302;2022-10-24T03:51:08;98284.66;;;13.56;100.00
48652;BME280;34442;52.362;-1.302;2022-10-24T03:53:34;98293.28;;;13.53;100.00
48652;BME280;34442;52.362;-1.302;2022-10-24T03:56:00;98295.19;;;13.53;100.00
48652;BME280;34442;52.362;-1.302;2022-10-24T03:58:26;98298.16;;;13.56;100.00
48652;BME280;34442;52.362;-1.302;2022-10-24T04:00:52;98302.22;;;13.54;100.00
48652;BME280;34442;52.362;-1.302;2022-10-24T04:03:19;98308.69;;;13.53;100.00
48652;BME280;34442;52.362;-1.302;2022-10-24T04:05:45;98312.75;;;13.55;100.00
48652;BME280;34442;52.362;-1.302;2022-10-24T04:08:11;98308.44;;;13.54;100.00
48652;BME280;34442;52.362;-1.302;2022-10-24T04:10:37;98312.19;;;13.58;100.00
48652;BME280;34442;52.362;-1.302;2022-10-24T04:13:03;98318.44;;;13.54;100.00
48652;BME280;34442;52.362;-1.302;2022-10-24T04:15:29;98321.69;;;13.51;100.00
48652;BME280;34442;52.362;-1.302;2022-10-24T04:17:55;98329.47;;;13.57;100.00
48652;BME280;34442;52.362;-1.302;2022-10-24T04:20:22;98336.50;;;13.58;100.00
48652;BME280;34442;52.362;-1.302;2022-10-24T04:22:48;98337.31;;;13.59;100.00
48652;BME280;34442;52.362;-1.302;2022-10-24T04:25:15;98336.75;;;13.57;100.00
48652;BME280;34442;52.362;-1.302;2022-10-24T04:27:42;98348.34;;;13.57;100.00
48652;BME280;34442;52.362;-1.302;2022-10-24T04:30:12;98353.50;;;13.59;100.00
48652;BME280;34442;52.362;-1.302;2022-10-24T04:32:39;98355.38;;;13.63;100.00
48652;BME280;34442;52.362;-1.302;2022-10-24T04:35:05;98359.16;;;13.62;100.00
48652;BME280;34442;52.362;-1.302;2022-10-24T04:37:32;98363.19;;;13.65;100.00
48652;BME280;34442;52.362;-1.302;2022-10-24T04:40:01;98371.03;;;13.61;100.00
48652;BME280;34442;52.362;-1.302;2022-10-24T04:42:26;98371.84;;;13.62;100.00
48652;BME280;34442;52.362;-1.302;2022-10-24T04:44:52;98371.03;;;13.67;100.00
48652;BME280;34442;52.362;-1.302;2022-10-24T04:47:18;98381.03;;;13.66;100.00
48652;BME280;34442;52.362;-1.302;2022-10-24T04:49:44;98390.69;;;13.72;100.00
48652;BME280;34442;52.362;-1.302;2022-10-24T04:52:10;98389.09;;;13.71;100.00
48652;BME280;34442;52.362;-1.302;2022-10-24T04:54:36;98405.56;;;13.64;100.00
48652;BME280;34442;52.362;-1.302;2022-10-24T04:57:02;98408.03;;;13.66;100.00
48652;BME280;34442;52.362;-1.302;2022-10-24T04:59:28;98408.03;;;13.66;100.00
48652;BME280;34442;52.362;-1.302;2022-10-24T05:01:54;98413.41;;;13.66;100.00
48652;BME280;34442;52.362;-1.302;2022-10-24T05:04:20;98411.28;;;13.58;100.00
48652;BME280;34442;52.362;-1.302;2022-10-24T05:06:46;98423.41;;;13.60;100.00
48652;BME280;34442;52.362;-1.302;2022-10-24T05:09:13;98420.47;;;13.62;100.00
48652;BME280;34442;52.362;-1.302;2022-10-24T05:11:39;98418.81;;;13.66;100.00
48652;BME280;34442;52.362;-1.302;2022-10-24T05:14:06;98428.50;;;13.72;100.00
48652;BME280;34442;52.362;-1.302;2022-10-24T05:16:32;98424.72;;;13.73;100.00
48652;BME280;34442;52.362;-1.302;2022-10-24T05:18:58;98435.00;;;13.71;100.00
48652;BME280;34442;52.362;-1.302;2022-10-24T05:21:24;98438.22;;;13.73;100.00
48652;BME280;34442;52.362;-1.302;2022-10-24T05:23:50;98446.06;;;13.75;100.00
48652;BME280;34442;52.362;-1.302;2022-10-24T05:26:16;98447.38;;;13.77;100.00
48652;BME280;34442;52.362;-1.302;2022-10-24T05:28:42;98453.31;;;13.74;100.00
48652;BME280;34442;52.362;-1.302;2022-10-24T05:31:08;98458.72;;;13.74;100.00
48652;BME280;34442;52.362;-1.302;2022-10-24T05:33:34;98469.00;;;13.77;100.00
48652;BME280;34442;52.362;-1.302;2022-10-24T05:36:00;98465.22;;;13.73;100.00
48652;BME280;34442;52.362;-1.302;2022-10-24T05:38:26;98476.56;;;13.75;100.00
48652;BME280;34442;52.362;-1.302;2022-10-24T05:40:52;98480.91;;;13.71;100.00
48652;BME280;34442;52.362;-1.302;2022-10-24T05:43:18;98488.19;;;13.71;100.00
48652;BME280;34442;52.362;-1.302;2022-10-24T05:45:47;98486.31;;;13.71;100.00
48652;BME280;34442;52.362;-1.302;2022-10-24T05:48:14;98490.63;;;13.72;100.00
48652;BME280;34442;52.362;-1.302;2022-10-24T05:50:40;98496.53;;;13.74;100.00
48652;BME280;34442;52.362;-1.302;2022-10-24T05:53:08;98503.31;;;13.72;100.00
48652;BME280;34442;52.362;-1.302;2022-10-24T05:55:35;98508.72;;;13.67;100.00
48652;BME280;34442;52.362;-1.302;2022-10-24T05:58:01;98506.28;;;13.65;100.00
48652;BME280;34442;52.362;-1.302;2022-10-24T06:00:27;98516.28;;;13.59;100.00
48652;BME280;34442;52.362;-1.302;2022-10-24T06:02:53;98516.28;;;13.59;100.00
48652;BME280;34442;52.362;-1.302;2022-10-24T06:05:19;98527.38;;;13.63;100.00
48652;BME280;34442;52.362;-1.302;2022-10-24T06:07:46;98520.34;;;13.67;100.00
48652;BME280;34442;52.362;-1.302;2022-10-24T06:10:12;98528.44;;;13.67;100.00
48652;BME280;34442;52.362;-1.302;2022-10-24T06:12:38;98526.84;;;13.35;100.00
48652;BME280;34442;52.362;-1.302;2022-10-24T06:15:06;98530.88;;;13.33;100.00
48652;BME280;34442;52.362;-1.302;2022-10-24T06:17:32;98533.84;;;13.31;100.00
48652;BME280;34442;52.362;-1.302;2022-10-24T06:19:58;98538.72;;;13.34;100.00
48652;BME280;34442;52.362;-1.302;2022-10-24T06:22:24;98545.72;;;13.35;100.00
48652;BME280;34442;52.362;-1.302;2022-10-24T06:24:52;98547.88;;;13.28;100.00
48652;BME280;34442;52.362;-1.302;2022-10-24T06:27:18;98547.34;;;13.31;100.00
48652;BME280;34442;52.362;-1.302;2022-10-24T06:29:44;98557.88;;;13.28;100.00
48652;BME280;34442;52.362;-1.302;2022-10-24T06:32:10;98557.34;;;13.31;100.00
48652;BME280;34442;52.362;-1.302;2022-10-24T06:34:37;98561.66;;;13.32;100.00
48652;BME280;34442;52.362;-1.302;2022-10-24T06:37:03;98560.56;;;13.33;100.00
48652;BME280;34442;52.362;-1.302;2022-10-24T06:39:29;98566.78;;;13.33;100.00
48652;BME280;34442;52.362;-1.302;2022-10-24T06:41:55;98575.94;;;13.32;100.00
48652;BME280;34442;52.362;-1.302;2022-10-24T06:44:21;98579.47;;;13.28;100.00
48652;BME280;34442;52.362;-1.302;2022-10-24T06:46:47;98586.75;;;13.32;100.00
48652;BME280;34442;52.362;-1.302;2022-10-24T06:49:13;98584.63;;;13.50;100.00
48652;BME280;34442;52.362;-1.302;2022-10-24T06:51:40;98586.78;;;13.58;100.00
48652;BME280;34442;52.362;-1.302;2022-10-24T06:54:06;98590.81;;;13.55;100.00
48652;BME280;34442;52.362;-1.302;2022-10-24T06:56:32;98598.38;;;13.58;100.00
48652;BME280;34442;52.362;-1.302;2022-10-24T06:58:58;98598.91;;;13.55;100.00
48652;BME280;34442;52.362;-1.302;2022-10-24T07:01:25;98614.84;;;13.62;100.00
48652;BME280;34442;52.362;-1.302;2022-10-24T07:03:53;98616.47;;;13.68;100.00
48652;BME280;34442;52.362;-1.302;2022-10-24T07:06:22;98618.06;;;13.69;100.00
48652;BME280;34442;52.362;-1.302;2022-10-24T07:08:50;98625.38;;;13.69;100.00
48652;BME280;34442;52.362;-1.302;2022-10-24T07:11:17;98624.28;;;13.64;100.00
48652;BME280;34442;52.362;-1.302;2022-10-24T07:13:43;98617.56;;;13.67;100.00
48652;BME280;34442;52.362;-1.302;2022-10-24T07:16:09;98636.19;;;13.69;100.00
48652;BME280;34442;52.362;-1.302;2022-10-24T07:18:35;98629.97;;;13.63;100.00
48652;BME280;34442;52.362;-1.302;2022-10-24T07:21:04;98638.34;;;13.67;100.00
48652;BME280;34442;52.362;-1.302;2022-10-24T07:23:31;98640.25;;;13.66;100.00
48652;BME280;34442;52.362;-1.302;2022-10-24T07:26:15;98649.16;;;13.67;100.00
48652;BME280;34442;52.362;-1.302;2022-10-24T07:28:43;98650.75;;;13.68;100.00
48652;BME280;34442;52.362;-1.302;2022-10-24T07:31:18;98645.88;;;13.70;100.00
48652;BME280;34442;52.362;-1.302;2022-10-24T07:33:44;98660.22;;;13.75;100.00
48652;BME280;34442;52.362;-1.302;2022-10-24T07:36:17;98664.81;;;13.75;100.00
48652;BME280;34442;52.362;-1.302;2022-10-24T07:38:45;98674.78;;;13.69;100.00
48652;BME280;34442;52.362;-1.302;2022-10-24T07:41:11;98668.31;;;13.65;100.00
48652;BME280;34442;52.362;-1.302;2022-10-24T07:43:37;98672.66;;;13.66;100.00
48652;BME280;34442;52.362;-1.302;2022-10-24T07:46:08;98671.84;;;13.71;100.00
48652;BME280;34442;52.362;-1.302;2022-10-24T07:48:37;98681.28;;;13.73;100.00
48652;BME280;34442;52.362;-1.302;2022-10-24T07:51:05;98687.75;;;13.72;100.00
48652;BME280;34442;52.362;-1.302;2022-10-24T07:53:31;98683.97;;;13.73;100.00
48652;BME280;34442;52.362;-1.302;2022-10-24T07:55:57;98698.03;;;13.70;100.00
48652;BME280;34442;52.362;-1.302;2022-10-24T07:58:25;98696.94;;;13.76;100.00
48652;BME280;34442;52.362;-1.302;2022-10-24T08:00:51;98706.66;;;13.77;100.00
48652;BME280;34442;52.362;-1.302;2022-10-24T08:03:17;98695.88;;;13.77;100.00
48652;BME280;34442;52.362;-1.302;2022-10-24T08:05:47;98713.44;;;13.75;100.00
48652;BME280;34442;52.362;-1.302;2022-10-24T08:08:13;98709.91;;;13.74;100.00
48652;BME280;34442;52.362;-1.302;2022-10-24T08:10:39;98706.38;;;13.74;100.00
48652;BME280;34442;52.362;-1.302;2022-10-24T08:13:04;98710.97;;;13.73;100.00
48652;BME280;34442;52.362;-1.302;2022-10-24T08:15:30;98716.38;;;13.78;100.00
48652;BME280;34442;52.362;-1.302;2022-10-24T08:17:57;98709.91;;;13.84;100.00
48652;BME280;34442;52.362;-1.302;2022-10-24T08:20:23;98718.31;;;13.83;100.00
48652;BME280;34442;52.362;-1.302;2022-10-24T08:22:51;98713.16;;;13.92;100.00
48652;BME280;34442;52.362;-1.302;2022-10-24T08:25:18;98728.28;;;13.98;100.00
48652;BME280;34442;52.362;-1.302;2022-10-24T08:27:44;98726.66;;;14.02;100.00
48652;BME280;34442;52.362;-1.302;2022-10-24T08:30:10;98732.59;;;13.99;100.00
48652;BME280;34442;52.362;-1.302;2022-10-24T08:32:36;98732.09;;;13.97;100.00
48652;BME280;34442;52.362;-1.302;2022-10-24T08:35:04;98743.97;;;14.01;100.00
48652;BME280;34442;52.362;-1.302;2022-10-24T08:37:30;98743.69;;;13.97;100.00
48652;BME280;34442;52.362;-1.302;2022-10-24T08:39:56;98750.44;;;13.95;100.00
48652;BME280;34442;52.362;-1.302;2022-10-24T08:42:24;98747.19;;;13.98;100.00
48652;BME280;34442;52.362;-1.302;2022-10-24T08:44:51;98745.03;;;13.95;100.00
48652;BME280;34442;52.362;-1.302;2022-10-24T08:50:02;98745.88;;;14.00;100.00
48652;BME280;34442;52.362;-1.302;2022-10-24T08:52:45;98754.22;;;13.99;100.00
48652;BME280;34442;52.362;-1.302;2022-10-24T08:55:20;98755.31;;;14.03;100.00
48652;BME280;34442;52.362;-1.302;2022-10-24T08:57:51;98763.97;;;14.10;100.00
48652;BME280;34442;52.362;-1.302;2022-10-24T09:00:24;98756.94;;;14.09;100.00
48652;BME280;34442;52.362;-1.302;2022-10-24T09:02:55;98770.19;;;14.10;100.00
48652;BME280;34442;52.362;-1.302;2022-10-24T09:05:28;98768.56;;;14.14;100.00
48652;BME280;34442;52.362;-1.302;2022-10-24T09:08:01;98769.66;;;14.19;100.00
48652;BME280;34442;52.362;-1.302;2022-10-24T09:10:47;98767.75;;;14.19;100.00
48652;BME280;34442;52.362;-1.302;2022-10-24T09:13:15;98772.09;;;14.20;100.00
48652;BME280;34442;52.362;-1.302;2022-10-24T09:15:43;98769.91;;;14.22;100.00
48652;BME280;34442;52.362;-1.302;2022-10-24T09:18:19;98772.63;;;14.22;100.00
48652;BME280;34442;52.362;-1.302;2022-10-24T09:20:47;98775.59;;;14.26;100.00
48652;BME280;34442;52.362;-1.302;2022-10-24T09:23:15;98785.06;;;14.28;100.00
48652;BME280;34442;52.362;-1.302;2022-10-24T09:25:46;98785.59;;;14.30;100.00
48652;BME280;34442;52.362;-1.302;2022-10-24T09:28:13;98793.72;;;14.30;100.00
48652;BME280;34442;52.362;-1.302;2022-10-24T09:30:40;98792.06;;;14.39;100.00
48652;BME280;34442;52.362;-1.302;2022-10-24T09:35:55;98799.16;;;14.51;100.00
48652;BME280;34442;52.362;-1.302;2022-10-24T09:40:51;98812.38;;;14.62;100.00
48652;BME280;34442;52.362;-1.302;2022-10-24T09:43:31;98814.28;;;14.62;100.00
48652;BME280;34442;52.362;-1.302;2022-10-24T09:46:05;98811.56;;;14.67;100.00
48652;BME280;34442;52.362;-1.302;2022-10-24T09:51:01;98821.31;;;14.68;100.00
48652;BME280;34442;52.362;-1.302;2022-10-24T09:53:36;98816.69;;;14.69;100.00
48652;BME280;34442;52.362;-1.302;2022-10-24T09:56:09;98817.78;;;14.73;100.00
48652;BME280;34442;52.362;-1.302;2022-10-24T09:58:36;98819.69;;;14.72;100.00
48652;BME280;34442;52.362;-1.302;2022-10-24T10:01:05;98819.69;;;14.77;100.00
48652;BME280;34442;52.362;-1.302;2022-10-24T10:03:36;98827.25;;;14.75;100.00
48652;BME280;34442;52.362;-1.302;2022-10-24T10:06:14;98818.03;;;14.76;100.00
48652;BME280;34442;52.362;-1.302;2022-10-24T10:08:40;98828.06;;;14.76;100.00
48652;BME280;34442;52.362;-1.302;2022-10-24T10:11:13;98825.91;;;14.78;100.00
48652;BME280;34442;52.362;-1.302;2022-10-24T10:13:59;98829.41;;;14.83;100.00
48652;BME280;34442;52.362;-1.302;2022-10-24T10:16:35;98825.88;;;14.88;100.00
48652;BME280;34442;52.362;-1.302;2022-10-24T10:19:20;98825.63;;;14.95;100.00
48652;BME280;34442;52.362;-1.302;2022-10-24T10:21:58;98828.00;;;15.01;100.00
48652;BME280;34442;52.362;-1.302;2022-10-24T10:24:45;98832.88;;;15.04;100.00
48652;BME280;34442;52.362;-1.302;2022-10-24T10:27:35;98831.25;;;15.19;100.00
48652;BME280;34442;52.362;-1.302;2022-10-24T10:43:42;98844.41;;;15.46;100.00
48652;BME280;34442;52.362;-1.302;2022-10-24T10:49:23;98852.50;;;15.51;100.00
48652;BME280;34442;52.362;-1.302;2022-10-24T10:52:05;98863.34;;;15.56;100.00
48652;BME280;34442;52.362;-1.302;2022-10-24T10:55:12;98867.13;;;15.60;100.00
48652;BME280;34442;52.362;-1.302;2022-10-24T10:57:48;98869.03;;;15.59;100.00
48652;BME280;34442;52.362;-1.302;2022-10-24T11:00:30;98879.59;;;15.56;100.00
48652;BME280;34442;52.362;-1.302;2022-10-24T11:03:25;98873.69;;;15.44;100.00
48652;BME280;34442;52.362;-1.302;2022-10-24T11:06:10;98879.91;;;15.34;100.00
48652;BME280;34442;52.362;-1.302;2022-10-24T11:08:48;98877.50;;;15.27;100.00
48652;BME280;34442;52.362;-1.302;2022-10-24T11:11:22;98880.50;;;15.21;100.00
48652;BME280;34442;52.362;-1.302;2022-10-24T11:14:11;98888.34;;;15.17;100.00
48652;BME280;34442;52.362;-1.302;2022-10-24T11:16:39;98881.88;;;15.13;100.00
48652;BME280;34442;52.362;-1.302;2022-10-24T11:19:17;98887.03;;;15.14;100.00
48652;BME280;34442;52.362;-1.302;2022-10-24T11:21:46;98894.88;;;15.11;100.00
48652;BME280;34442;52.362;-1.302;2022-10-24T11:24:20;98900.56;;;15.14;100.00
48652;BME280;34442;52.362;-1.302;2022-10-24T11:26:55;98892.16;;;15.11;100.00
48652;BME280;34442;52.362;-1.302;2022-10-24T11:29:38;98893.75;;;15.17;100.00
48652;BME280;34442;52.362;-1.302;2022-10-24T11:32:15;98902.44;;;15.19;100.00
48652;BME280;34442;52.362;-1.302;2022-10-24T11:34:47;98891.06;;;15.27;100.00
48652;BME280;34442;52.362;-1.302;2022-10-24T11:37:44;98899.97;;;15.28;100.00
48652;BME280;34442;52.362;-1.302;2022-10-24T11:40:14;98899.72;;;15.24;100.00
48652;BME280;34442;52.362;-1.302;2022-10-24T11:45:34;98906.44;;;15.42;100.00
48652;BME280;34442;52.362;-1.302;2022-10-24T11:48:20;98908.66;;;15.35;100.00
48652;BME280;34442;52.362;-1.302;2022-10-24T11:50:56;98906.22;;;15.28;100.00
48652;BME280;34442;52.362;-1.302;2022-10-24T11:56:18;98896.19;;;15.39;100.00
48652;BME280;34442;52.362;-1.302;2022-10-24T11:58:55;98904.00;;;15.41;100.00
48652;BME280;34442;52.362;-1.302;2022-10-24T12:01:46;98905.09;;;15.45;100.00
48652;BME280;34442;52.362;-1.302;2022-10-24T12:07:38;98903.47;;;15.33;100.00
48652;BME280;34442;52.362;-1.302;2022-10-24T12:10:29;98902.66;;;15.38;100.00
48652;BME280;34442;52.362;-1.302;2022-10-24T12:18:49;98907.25;;;15.37;100.00
48652;BME280;34442;52.362;-1.302;2022-10-24T12:21:21;98905.91;;;15.40;100.00
48652;BME280;34442;52.362;-1.302;2022-10-24T12:23:56;98904.31;;;15.39;100.00
48652;BME280;34442;52.362;-1.302;2022-10-24T12:26:32;98901.88;;;15.32;100.00
48652;BME280;34442;52.362;-1.302;2022-10-24T12:29:06;98905.09;;;15.34;100.00
48652;BME280;34442;52.362;-1.302;2022-10-24T12:31:45;98915.13;;;15.34;100.00
48652;BME280;34442;52.362;-1.302;2022-10-24T12:36:59;98911.03;;;15.42;100.00
48652;BME280;34442;52.362;-1.302;2022-10-24T12:39:36;98908.88;;;15.49;100.00
48652;BME280;34442;52.362;-1.302;2022-10-24T12:42:03;98920.00;;;15.37;100.00
48652;BME280;34442;52.362;-1.302;2022-10-24T12:49:31;98924.59;;;15.42;100.00
48652;BME280;34442;52.362;-1.302;2022-10-24T12:51:58;98918.63;;;15.34;100.00
48652;BME280;34442;52.362;-1.302;2022-10-24T12:54:44;98922.16;;;15.40;100.00
48652;BME280;34442;52.362;-1.302;2022-10-24T12:59:58;98924.84;;;15.50;100.00
48652;BME280;34442;52.362;-1.302;2022-10-24T13:05:34;98919.94;;;15.57;100.00
48652;BME280;34442;52.362;-1.302;2022-10-24T13:21:42;98936.50;;;15.46;100.00
48652;BME280;34442;52.362;-1.302;2022-10-24T13:30:02;98944.63;;;15.56;100.00
48652;BME280;34442;52.362;-1.302;2022-10-24T13:40:31;98929.13;;;15.77;100.00
48652;BME280;34442;52.362;-1.302;2022-10-24T13:43:01;98942.44;;;15.58;100.00
48652;BME280;34442;52.362;-1.302;2022-10-24T13:45:40;98944.63;;;15.56;100.00
48652;BME280;34442;52.362;-1.302;2022-10-24T13:48:17;98936.47;;;15.61;100.00
48652;BME280;34442;52.362;-1.302;2022-10-24T13:51:07;98941.91;;;15.56;100.00
48652;BME280;34442;52.362;-1.302;2022-10-24T13:53:44;98936.75;;;15.49;100.00
48652;BME280;34442;52.362;-1.302;2022-10-24T13:56:12;98943.00;;;15.50;100.00
48652;BME280;34442;52.362;-1.302;2022-10-24T13:58:41;98946.25;;;15.52;100.00
48652;BME280;34442;52.362;-1.302;2022-10-24T14:01:25;98943.50;;;15.62;100.00
48652;BME280;34442;52.362;-1.302;2022-10-24T14:03:53;98946.78;;;15.54;100.00
48652;BME280;34442;52.362;-1.302;2022-10-24T14:06:31;98946.50;;;15.60;100.00
48652;BME280;34442;52.362;-1.302;2022-10-24T14:09:04;98953.03;;;15.65;100.00
48652;BME280;34442;52.362;-1.302;2022-10-24T14:11:46;98948.66;;;15.63;100.00
48652;BME280;34442;52.362;-1.302;2022-10-24T14:14:36;98947.03;;;15.62;100.00
48652;BME280;34442;52.362;-1.302;2022-10-24T14:17:27;98940.81;;;15.67;100.00
48652;BME280;34442;52.362;-1.302;2022-10-24T14:22:36;98938.94;;;15.68;100.00
48652;BME280;34442;52.362;-1.302;2022-10-24T14:25:33;98936.19;;;15.73;100.00
48652;BME280;34442;52.362;-1.302;2022-10-24T14:28:27;98938.66;;;15.69;100.00
48652;BME280;34442;52.362;-1.302;2022-10-24T14:30:59;98937.03;;;15.68;100.00
48652;BME280;34442;52.362;-1.302;2022-10-24T14:33:30;98936.75;;;15.65;100.00
48652;BME280;34442;52.362;-1.302;2022-10-24T14:35:59;98941.06;;;15.71;100.00
48652;BME280;34442;52.362;-1.302;2022-10-24T14:38:27;98944.59;;;15.71;100.00
48652;BME280;34442;52.362;-1.302;2022-10-24T14:40:54;98951.09;;;15.70;100.00
48652;BME280;34442;52.362;-1.302;2022-10-24T14:43:24;98957.59;;;15.69;100.00
48652;BME280;34442;52.362;-1.302;2022-10-24T14:48:37;98951.66;;;15.47;100.00
48652;BME280;34442;52.362;-1.302;2022-10-24T14:53:41;98954.94;;;15.44;100.00